createdAt,value
2023-10-21T00:01:21.307Z,15.69
2023-10-21T00:03:55.304Z,15.75
2023-10-21T00:06:29.735Z,15.67
2023-10-21T00:09:03.171Z,15.70
2023-10-21T00:11:36.330Z,15.69
2023-10-21T00:14:09.419Z,15.71
2023-10-21T00:16:43.420Z,15.73
2023-10-21T00:19:16.825Z,15.69
2023-10-21T00:21:51.681Z,15.70
2023-10-21T00:24:26.741Z,15.67
2023-10-21T00:26:59.981Z,15.72
2023-10-21T00:29:33.239Z,15.87
2023-10-21T00:32:07.128Z,15.84
2023-10-21T00:34:40.745Z,15.84
2023-10-21T00:37:15.551Z,15.86
2023-10-21T00:39:48.979Z,15.88
2023-10-21T00:42:22.593Z,15.84
2023-10-21T00:44:55.999Z,15.80
2023-10-21T00:47:29.424Z,15.88
2023-10-21T00:50:04.816Z,15.87
2023-10-21T00:52:47.771Z,15.83
2023-10-21T00:55:21.245Z,15.85
2023-10-21T00:57:55.181Z,15.83
2023-10-21T01:00:28.563Z,15.86
2023-10-21T01:03:02.331Z,15.84
2023-10-21T01:05:36.002Z,15.88
2023-10-21T01:08:10.652Z,15.83
2023-10-21T01:10:44.035Z,15.89
2023-10-21T01:13:17.463Z,15.84
2023-10-21T01:15:50.805Z,15.78
2023-10-21T01:18:26.090Z,15.78
2023-10-21T01:20:59.573Z,15.75
2023-10-21T01:23:36.098Z,15.72
2023-10-21T01:26:09.710Z,15.77
2023-10-21T01:28:43.050Z,15.79
2023-10-21T01:31:16.444Z,15.74
2023-10-21T01:33:50.082Z,15.81
2023-10-21T01:36:23.478Z,15.80
2023-10-21T01:38:58.045Z,15.75
2023-10-21T01:41:31.222Z,15.77
2023-10-21T01:44:04.161Z,15.75
2023-10-21T01:46:38.139Z,15.70
2023-10-21T01:49:11.553Z,15.72
2023-10-21T01:51:45.574Z,15.72
2023-10-21T01:54:20.140Z,15.75
2023-10-21T01:56:53.721Z,15.70
2023-10-21T01:59:26.981Z,15.70
2023-10-21T02:02:00.347Z,15.75
2023-10-21T02:04:33.541Z,15.71
2023-10-21T02:07:06.944Z,15.69
2023-10-21T02:09:41.889Z,15.70
2023-10-21T02:12:15.096Z,15.68
2023-10-21T02:14:48.232Z,15.65
2023-10-21T02:17:21.572Z,15.62
2023-10-21T02:19:57.823Z,15.63
2023-10-21T02:22:31.077Z,15.67
2023-10-21T02:25:13.369Z,15.60
2023-10-21T02:27:47.462Z,15.60
2023-10-21T02:30:20.632Z,15.64
2023-10-21T02:32:53.877Z,15.64
2023-10-21T02:35:27.092Z,15.63
2023-10-21T02:38:00.567Z,15.63
2023-10-21T02:40:35.235Z,15.67
2023-10-21T02:43:08.427Z,15.60
2023-10-21T02:45:41.917Z,15.69
2023-10-21T02:48:15.769Z,15.67
2023-10-21T02:50:49.501Z,15.66
2023-10-21T02:53:22.691Z,15.66
2023-10-21T02:55:57.317Z,15.65
2023-10-21T02:58:33.322Z,15.62
2023-10-21T03:01:14.889Z,15.62
2023-10-21T03:03:49.415Z,15.64
2023-10-21T03:06:23.654Z,15.63
2023-10-21T03:08:57.025Z,15.69
2023-10-21T03:11:31.837Z,15.64
2023-10-21T03:14:05.468Z,15.65
2023-10-21T03:16:39.502Z,15.67
2023-10-21T03:19:13.104Z,15.63
2023-10-21T03:21:48.536Z,15.59
2023-10-21T03:24:21.545Z,15.62
2023-10-21T03:26:56.113Z,15.62
2023-10-21T03:29:29.293Z,15.65
2023-10-21T03:32:02.466Z,15.58
2023-10-21T03:34:35.761Z,15.56
2023-10-21T03:37:09.134Z,15.59
2023-10-21T03:39:42.804Z,15.55
2023-10-21T03:42:17.674Z,15.53
2023-10-21T03:44:50.740Z,15.51
2023-10-21T03:47:25.372Z,15.53
2023-10-21T03:49:59.579Z,15.51
2023-10-21T03:52:32.860Z,15.54
2023-10-21T03:55:07.426Z,15.54
2023-10-21T03:57:41.973Z,15.53
2023-10-21T04:00:15.577Z,15.50
2023-10-21T04:02:48.743Z,15.57
2023-10-21T04:05:22.123Z,15.53
2023-10-21T04:07:56.527Z,15.54
2023-10-21T04:10:29.968Z,15.51
2023-10-21T04:13:04.992Z,15.51
2023-10-21T04:15:39.149Z,15.56
2023-10-21T04:18:14.431Z,15.48
2023-10-21T04:20:48.364Z,15.52
2023-10-21T04:23:21.588Z,15.48
2023-10-21T04:25:54.765Z,15.51
2023-10-21T04:28:29.686Z,15.47
2023-10-21T04:31:04.031Z,15.46
2023-10-21T04:33:37.146Z,15.50
2023-10-21T04:36:10.150Z,15.53
2023-10-21T04:38:44.735Z,15.59
2023-10-21T04:41:18.061Z,15.56
2023-10-21T04:43:52.592Z,15.62
2023-10-21T04:46:26.251Z,15.68
2023-10-21T04:48:59.498Z,15.63
2023-10-21T04:51:33.185Z,15.62
2023-10-21T04:54:06.865Z,15.69
2023-10-21T04:56:40.592Z,15.76
2023-10-21T04:59:16.124Z,15.74
2023-10-21T05:01:49.084Z,15.78
2023-10-21T05:04:22.007Z,15.75
2023-10-21T05:06:55.363Z,15.80
2023-10-21T05:09:28.946Z,15.90
2023-10-21T05:12:02.224Z,15.90
2023-10-21T05:14:37.144Z,15.87
2023-10-21T05:17:10.851Z,15.85
2023-10-21T05:19:45.932Z,15.94
2023-10-21T05:22:19.432Z,15.90
2023-10-21T05:24:52.605Z,15.91
2023-10-21T05:27:25.793Z,15.84
2023-10-21T05:30:00.549Z,15.83
2023-10-21T05:32:33.901Z,15.92
2023-10-21T05:35:08.831Z,15.99
2023-10-21T05:37:42.100Z,15.97
2023-10-21T05:40:15.694Z,15.97
2023-10-21T05:42:49.518Z,15.97
2023-10-21T05:45:25.135Z,16.12
2023-10-21T05:47:58.271Z,16.00
2023-10-21T05:50:33.024Z,16.08
2023-10-21T05:53:06.509Z,16.11
2023-10-21T05:55:42.517Z,16.09
2023-10-21T05:58:15.926Z,16.13
2023-10-21T06:00:51.004Z,16.07
2023-10-21T06:03:25.692Z,16.07
2023-10-21T06:05:59.563Z,16.04
2023-10-21T06:08:32.726Z,16.03
2023-10-21T06:11:05.898Z,15.97
2023-10-21T06:13:38.964Z,16.01
2023-10-21T06:16:13.797Z,16.06
2023-10-21T06:18:47.205Z,16.13
2023-10-21T06:21:20.926Z,16.16
2023-10-21T06:23:54.898Z,16.12
2023-10-21T06:26:28.148Z,16.06
2023-10-21T06:29:01.707Z,16.12
2023-10-21T06:31:36.230Z,16.09
2023-10-21T06:34:09.773Z,16.09
2023-10-21T06:36:43.604Z,16.08
2023-10-21T06:39:16.732Z,16.05
2023-10-21T06:41:50.202Z,16.02
2023-10-21T06:44:24.783Z,16.08
2023-10-21T06:47:00.626Z,16.11
2023-10-21T06:49:34.280Z,16.03
2023-10-21T06:52:07.989Z,16.04
2023-10-21T06:54:41.086Z,16.06
2023-10-21T06:57:21.393Z,16.03
2023-10-21T06:59:55.129Z,16.05
2023-10-21T07:02:29.737Z,16.10
2023-10-21T07:05:03.010Z,16.06
2023-10-21T07:07:36.400Z,16.11
2023-10-21T07:10:11.357Z,16.09
2023-10-21T07:12:44.675Z,16.14
2023-10-21T07:15:18.229Z,16.14
2023-10-21T07:17:54.182Z,16.27
2023-10-21T07:20:27.830Z,16.15
2023-10-21T07:23:00.942Z,16.16
2023-10-21T07:25:33.746Z,16.15
2023-10-21T07:28:07.203Z,16.18
2023-10-21T07:30:40.642Z,16.25
2023-10-21T07:33:15.666Z,16.19
2023-10-21T07:35:51.380Z,16.21
2023-10-21T07:38:24.281Z,16.21
2023-10-21T07:40:57.778Z,16.16
2023-10-21T07:43:30.577Z,16.20
2023-10-21T07:46:04.256Z,16.20
2023-10-21T07:48:38.422Z,16.27
2023-10-21T07:51:11.514Z,16.08
2023-10-21T07:53:44.400Z,16.16
2023-10-21T07:56:17.656Z,16.15
2023-10-21T07:58:50.820Z,15.94
2023-10-21T08:01:23.927Z,15.99
2023-10-21T08:03:58.244Z,15.95
2023-10-21T08:06:31.813Z,15.90
2023-10-21T08:09:05.880Z,16.23
2023-10-21T08:11:39.008Z,16.29
2023-10-21T08:14:13.569Z,16.37
2023-10-21T08:16:47.476Z,16.35
2023-10-21T08:19:21.969Z,16.29
2023-10-21T08:21:55.273Z,16.36
2023-10-21T08:24:28.422Z,16.32
2023-10-21T08:27:01.674Z,16.31
2023-10-21T08:29:35.014Z,16.34
2023-10-21T08:32:08.977Z,16.34
2023-10-21T08:34:43.260Z,16.37
2023-10-21T08:37:17.176Z,16.42
2023-10-21T08:39:50.018Z,16.39
2023-10-21T08:42:32.706Z,16.41
2023-10-21T08:45:20.946Z,16.47
2023-10-21T08:47:55.445Z,16.47
2023-10-21T08:50:29.910Z,16.47
2023-10-21T08:53:03.083Z,16.49
2023-10-21T08:55:37.720Z,16.49
2023-10-21T08:58:11.919Z,16.47
2023-10-21T09:00:45.460Z,16.58
2023-10-21T09:03:18.673Z,16.53
2023-10-21T09:06:07.195Z,16.59
2023-10-21T09:08:41.916Z,16.67
2023-10-21T09:11:18.440Z,16.58
2023-10-21T09:13:53.602Z,16.73
2023-10-21T09:16:28.504Z,16.66
2023-10-21T09:19:03.873Z,16.70
2023-10-21T09:21:39.506Z,16.58
2023-10-21T09:24:14.437Z,16.68
2023-10-21T09:26:49.036Z,16.72
2023-10-21T09:29:23.755Z,16.69
2023-10-21T09:31:57.995Z,16.65
2023-10-21T09:34:33.196Z,16.74
2023-10-21T09:37:09.808Z,16.75
2023-10-21T09:39:45.864Z,16.74
2023-10-21T09:42:21.281Z,16.80
2023-10-21T09:44:56.298Z,16.81
2023-10-21T09:47:30.858Z,16.81
2023-10-21T09:50:07.443Z,16.88
2023-10-21T09:52:46.810Z,16.97
2023-10-21T09:55:25.659Z,17.10
2023-10-21T09:57:59.617Z,17.16
2023-10-21T10:00:32.681Z,17.16
2023-10-21T10:03:06.423Z,17.20
2023-10-21T10:05:40.214Z,17.23
2023-10-21T10:08:15.385Z,17.26
2023-10-21T10:10:50.542Z,17.32
2023-10-21T10:13:26.327Z,17.28
2023-10-21T10:15:59.673Z,17.31
2023-10-21T10:18:33.575Z,17.40
2023-10-21T10:21:16.068Z,17.35
2023-10-21T10:23:55.473Z,17.45
2023-10-21T10:26:37.515Z,17.42
2023-10-21T10:29:20.320Z,17.45
2023-10-21T10:32:15.395Z,17.51
2023-10-21T10:34:53.792Z,17.55
2023-10-21T10:37:32.576Z,17.49
2023-10-21T10:40:19.675Z,17.63
2023-10-21T10:42:53.494Z,17.70
2023-10-21T10:45:26.679Z,17.58
2023-10-21T10:48:01.685Z,17.60
2023-10-21T10:50:37.893Z,17.69
2023-10-21T10:53:14.991Z,17.75
2023-10-21T10:55:51.182Z,17.79
2023-10-21T10:58:28.005Z,17.83
2023-10-21T11:01:02.050Z,17.76
2023-10-21T11:03:37.091Z,17.78
2023-10-21T11:06:10.227Z,17.87
2023-10-21T11:08:44.086Z,17.90
2023-10-21T11:11:18.485Z,17.93
2023-10-21T11:13:52.073Z,17.90
2023-10-21T11:16:25.204Z,17.97
2023-10-21T11:19:01.997Z,17.93
2023-10-21T11:21:40.931Z,18.02
2023-10-21T11:24:15.652Z,17.94
2023-10-21T11:26:52.291Z,18.05
2023-10-21T11:29:25.603Z,18.14
2023-10-21T11:31:59.773Z,18.07
2023-10-21T11:34:33.963Z,18.17
2023-10-21T11:37:07.220Z,18.32
2023-10-21T11:39:42.209Z,18.43
2023-10-21T11:42:20.538Z,18.46
2023-10-21T11:44:58.102Z,18.36
2023-10-21T11:47:32.603Z,18.38
2023-10-21T11:50:10.523Z,18.35
2023-10-21T11:52:45.792Z,18.29
2023-10-21T11:55:38.444Z,18.24
2023-10-21T11:58:56.094Z,18.17
2023-10-21T12:02:01.079Z,18.28
2023-10-21T12:04:51.861Z,18.20
2023-10-21T12:07:48.127Z,18.25
2023-10-21T12:10:35.037Z,18.16
2023-10-21T12:13:40.840Z,18.10
2023-10-21T12:16:33.716Z,18.12
2023-10-21T12:19:26.657Z,18.12
2023-10-21T12:22:16.464Z,18.13
2023-10-21T12:25:07.770Z,18.02
2023-10-21T12:27:58.350Z,18.09
2023-10-21T12:31:03.752Z,17.85
2023-10-21T12:33:55.814Z,18.00
2023-10-21T12:36:34.693Z,17.99
2023-10-21T12:39:30.655Z,17.98
2023-10-21T12:42:16.767Z,17.97
2023-10-21T12:44:53.401Z,17.93
2023-10-21T12:47:28.596Z,17.67
2023-10-21T12:50:14.561Z,17.66
2023-10-21T12:52:48.902Z,17.74
2023-10-21T12:55:26.710Z,17.60
2023-10-21T12:57:59.824Z,17.55
2023-10-21T13:00:34.102Z,17.59
2023-10-21T13:03:12.461Z,17.80
2023-10-21T13:05:47.473Z,17.54
2023-10-21T13:08:20.474Z,17.64
2023-10-21T13:10:55.853Z,17.58
2023-10-21T13:13:29.955Z,17.58
2023-10-21T13:16:04.854Z,17.58
2023-10-21T13:18:37.766Z,17.50
2023-10-21T13:21:12.074Z,17.51
2023-10-21T13:23:45.172Z,17.57
2023-10-21T13:26:17.807Z,17.58
2023-10-21T13:28:50.931Z,17.54
2023-10-21T13:31:23.787Z,17.49
2023-10-21T13:33:56.720Z,17.43
2023-10-21T13:36:31.890Z,17.39
2023-10-21T13:39:09.874Z,17.36
2023-10-21T13:41:42.886Z,17.36
2023-10-21T13:44:16.268Z,17.40
2023-10-21T13:46:49.385Z,17.36
2023-10-21T13:49:22.141Z,17.36
2023-10-21T13:51:56.262Z,17.33
2023-10-21T13:54:29.133Z,17.25
2023-10-21T13:57:05.834Z,17.21
2023-10-21T13:59:38.567Z,17.20
2023-10-21T14:02:12.650Z,17.20
2023-10-21T14:04:45.663Z,17.19
2023-10-21T14:07:20.329Z,17.19
2023-10-21T14:09:53.344Z,17.19
2023-10-21T14:12:26.017Z,17.19
2023-10-21T14:15:06.841Z,17.16
2023-10-21T14:17:40.734Z,17.12
2023-10-21T14:20:13.971Z,17.12
2023-10-21T14:22:48.587Z,17.09
2023-10-21T14:25:21.877Z,17.06
2023-10-21T14:27:54.700Z,17.05
2023-10-21T14:30:28.465Z,17.02
2023-10-21T14:33:02.809Z,17.00
2023-10-21T14:35:37.053Z,16.93
2023-10-21T14:38:11.870Z,16.87
2023-10-21T14:40:46.239Z,16.91
2023-10-21T14:43:19.661Z,16.99
2023-10-21T14:45:53.058Z,16.95
2023-10-21T14:48:26.018Z,16.88
2023-10-21T14:50:58.751Z,16.93
2023-10-21T14:53:32.996Z,16.87
2023-10-21T14:56:06.872Z,16.95
2023-10-21T14:58:41.029Z,16.99
2023-10-21T15:01:14.124Z,16.94
2023-10-21T15:03:47.222Z,16.87
2023-10-21T15:06:20.995Z,16.84
2023-10-21T15:08:55.448Z,16.87
2023-10-21T15:11:29.478Z,16.89
2023-10-21T15:14:02.715Z,16.82
2023-10-21T15:16:36.978Z,16.84
2023-10-21T15:19:10.754Z,16.89
2023-10-21T15:21:43.776Z,16.88
2023-10-21T15:24:17.883Z,16.83
2023-10-21T15:26:52.454Z,16.83
2023-10-21T15:29:25.660Z,16.84
2023-10-21T15:31:59.086Z,16.81
2023-10-21T15:34:32.356Z,16.75
2023-10-21T15:37:07.390Z,16.75
2023-10-21T15:39:42.246Z,16.74
2023-10-21T15:42:15.920Z,16.66
2023-10-21T15:44:49.029Z,16.63
2023-10-21T15:47:22.630Z,16.67
2023-10-21T15:49:56.182Z,16.66
2023-10-21T15:52:29.441Z,16.63
2023-10-21T15:55:05.190Z,16.58
2023-10-21T15:57:39.863Z,16.54
2023-10-21T16:00:15.654Z,16.50
2023-10-21T16:02:50.805Z,16.51
2023-10-21T16:05:24.095Z,16.57
2023-10-21T16:07:58.486Z,16.57
2023-10-21T16:10:33.230Z,16.59
2023-10-21T16:13:06.238Z,16.50
2023-10-21T16:15:39.612Z,16.47
2023-10-21T16:18:13.586Z,16.59
2023-10-21T16:20:46.952Z,16.53
2023-10-21T16:23:20.150Z,16.57
2023-10-21T16:25:54.801Z,16.48
2023-10-21T16:28:28.125Z,16.52
2023-10-21T16:31:01.504Z,16.48
2023-10-21T16:33:35.859Z,16.52
2023-10-21T16:36:09.407Z,16.47
2023-10-21T16:38:44.518Z,16.56
2023-10-21T16:41:19.309Z,16.52
2023-10-21T16:43:54.268Z,16.57
2023-10-21T16:46:27.803Z,16.58
2023-10-21T16:49:01.473Z,16.44
2023-10-21T16:51:34.425Z,16.63
2023-10-21T16:54:08.255Z,16.55
2023-10-21T16:56:45.733Z,16.54
2023-10-21T16:59:19.041Z,16.51
2023-10-21T17:01:52.252Z,16.72
2023-10-21T17:04:27.159Z,16.70
2023-10-21T17:07:00.488Z,16.78
2023-10-21T17:09:34.326Z,16.78
2023-10-21T17:12:09.802Z,16.79
2023-10-21T17:14:43.531Z,16.65
2023-10-21T17:17:16.706Z,16.63
2023-10-21T17:19:49.815Z,16.63
2023-10-21T17:22:23.197Z,16.59
2023-10-21T17:24:56.342Z,16.55
2023-10-21T17:27:30.758Z,16.55
2023-10-21T17:30:04.324Z,16.58
2023-10-21T17:32:37.411Z,16.61
2023-10-21T17:35:10.828Z,16.65
2023-10-21T17:37:45.132Z,16.70
2023-10-21T17:40:19.914Z,16.63
2023-10-21T17:42:56.460Z,16.58
2023-10-21T17:45:29.947Z,16.57
2023-10-21T17:48:05.995Z,16.47
2023-10-21T17:50:39.557Z,16.55
2023-10-21T17:53:12.582Z,16.57
2023-10-21T17:55:45.801Z,16.39
2023-10-21T17:58:20.500Z,16.75
2023-10-21T18:00:53.913Z,16.59
2023-10-21T18:03:27.431Z,16.45
2023-10-21T18:06:00.908Z,16.48
2023-10-21T18:08:34.317Z,16.55
2023-10-21T18:11:08.114Z,16.53
2023-10-21T18:13:43.125Z,16.54
2023-10-21T18:16:18.119Z,16.55
2023-10-21T18:18:53.140Z,16.51
2023-10-21T18:21:26.400Z,16.47
2023-10-21T18:23:59.375Z,16.53
2023-10-21T18:26:32.395Z,16.49
2023-10-21T18:29:06.900Z,16.43
2023-10-21T18:31:39.938Z,16.32
2023-10-21T18:34:13.247Z,16.37
2023-10-21T18:36:46.531Z,16.40
2023-10-21T18:39:19.949Z,16.38
2023-10-21T18:41:53.313Z,16.39
2023-10-21T18:44:28.311Z,16.39
2023-10-21T18:47:02.054Z,16.42
2023-10-21T18:49:36.117Z,16.46
2023-10-21T18:52:09.556Z,16.42
2023-10-21T18:54:42.845Z,16.44
2023-10-21T18:57:16.391Z,16.44
2023-10-21T18:59:54.704Z,16.43
2023-10-21T19:02:28.625Z,16.43
2023-10-21T19:05:02.252Z,16.45
2023-10-21T19:07:35.851Z,16.43
2023-10-21T19:10:10.526Z,16.40
2023-10-21T19:12:43.743Z,16.44
2023-10-21T19:15:18.520Z,16.33
2023-10-21T19:17:51.941Z,16.17
2023-10-21T19:20:25.107Z,16.36
2023-10-21T19:22:58.248Z,16.29
2023-10-21T19:25:31.325Z,16.25
2023-10-21T19:28:04.433Z,16.36
2023-10-21T19:30:38.961Z,16.07
2023-10-21T19:33:12.581Z,16.22
2023-10-21T19:35:54.529Z,16.40
2023-10-21T19:38:28.296Z,16.35
2023-10-21T19:41:04.938Z,16.44
2023-10-21T19:43:38.743Z,16.42
2023-10-21T19:46:14.576Z,16.45
2023-10-21T19:48:47.573Z,16.42
2023-10-21T19:51:20.843Z,16.44
2023-10-21T19:53:54.299Z,16.39
2023-10-21T19:56:28.725Z,16.21
2023-10-21T19:59:01.931Z,16.24
2023-10-21T20:01:36.847Z,16.30
2023-10-21T20:04:11.905Z,16.24
2023-10-21T20:06:45.107Z,16.22
2023-10-21T20:09:18.346Z,16.23
2023-10-21T20:11:52.084Z,16.23
2023-10-21T20:14:25.704Z,16.27
2023-10-21T20:17:00.212Z,16.20
2023-10-21T20:19:33.568Z,16.20
2023-10-21T20:22:06.895Z,16.09
2023-10-21T20:24:40.466Z,16.18
2023-10-21T20:27:13.539Z,16.19
2023-10-21T20:29:46.701Z,16.13
2023-10-21T20:32:21.271Z,16.16
2023-10-21T20:34:54.326Z,16.09
2023-10-21T20:37:27.310Z,16.05
2023-10-21T20:40:00.480Z,16.09
2023-10-21T20:42:33.688Z,16.16
2023-10-21T20:45:07.826Z,16.20
2023-10-21T20:47:42.431Z,16.15
2023-10-21T20:50:17.165Z,16.18
2023-10-21T20:52:51.054Z,16.19
2023-10-21T20:55:24.866Z,16.20
2023-10-21T20:57:58.162Z,16.17
2023-10-21T21:00:31.489Z,16.21
2023-10-21T21:03:07.037Z,16.19
2023-10-21T21:05:42.093Z,16.13
2023-10-21T21:08:15.285Z,16.19
2023-10-21T21:10:50.441Z,16.18
2023-10-21T21:13:23.606Z,16.16
2023-10-21T21:15:59.645Z,15.94
2023-10-21T21:18:34.771Z,16.13
2023-10-21T21:21:07.973Z,16.16
2023-10-21T21:23:41.258Z,16.14
2023-10-21T21:26:15.178Z,16.13
2023-10-21T21:28:48.188Z,15.89
2023-10-21T21:31:21.454Z,16.09
2023-10-21T21:33:56.263Z,16.09
2023-10-21T21:36:31.755Z,16.09
2023-10-21T21:39:06.155Z,16.13
2023-10-21T21:41:39.451Z,16.20
2023-10-21T21:44:13.554Z,16.20
2023-10-21T21:46:47.029Z,16.19
2023-10-21T21:49:22.323Z,16.19
2023-10-21T21:51:55.609Z,16.26
2023-10-21T21:54:30.790Z,16.30
2023-10-21T21:57:04.728Z,16.24
2023-10-21T21:59:38.368Z,16.14
2023-10-21T22:02:11.790Z,16.28
2023-10-21T22:04:47.039Z,16.21
2023-10-21T22:07:23.075Z,16.17
2023-10-21T22:09:57.174Z,16.19
2023-10-21T22:12:30.571Z,16.10
2023-10-21T22:15:07.079Z,16.14
2023-10-21T22:17:40.717Z,16.22
2023-10-21T22:20:19.806Z,16.15
2023-10-21T22:22:54.233Z,16.11
2023-10-21T22:25:39.500Z,16.21
2023-10-21T22:28:14.218Z,16.19
2023-10-21T22:30:49.047Z,16.13
2023-10-21T22:33:22.309Z,16.13
2023-10-21T22:35:57.203Z,16.07
2023-10-21T22:38:30.358Z,16.14
2023-10-21T22:41:03.668Z,16.11
2023-10-21T22:43:36.913Z,16.11
2023-10-21T22:46:10.812Z,16.07
2023-10-21T22:48:48.129Z,16.11
2023-10-21T22:51:22.821Z,15.98
2023-10-21T22:53:56.193Z,16.19
2023-10-21T22:56:29.648Z,16.12
2023-10-21T22:59:06.190Z,15.98
2023-10-21T23:01:40.210Z,15.94
2023-10-21T23:04:13.617Z,16.03
2023-10-21T23:06:48.336Z,16.07
2023-10-21T23:09:30.009Z,16.07
2023-10-21T23:12:03.633Z,16.21
2023-10-21T23:14:37.301Z,16.09
2023-10-21T23:17:11.421Z,16.15
2023-10-21T23:19:45.308Z,15.85
2023-10-21T23:22:20.123Z,16.02
2023-10-21T23:24:54.476Z,16.05
2023-10-21T23:27:27.881Z,15.91
2023-10-21T23:30:01.113Z,15.82
2023-10-21T23:32:34.440Z,15.91
2023-10-21T23:35:09.287Z,15.97
2023-10-21T23:37:44.000Z,16.07
2023-10-21T23:40:17.662Z,15.98
2023-10-21T23:42:51.306Z,16.11
2023-10-21T23:45:24.484Z,16.09
2023-10-21T23:47:58.239Z,16.12
2023-10-21T23:50:31.832Z,16.18
2023-10-21T23:53:06.534Z,16.24
2023-10-21T23:55:40.148Z,16.19
2023-10-21T23:58:14.377Z,16.02
